TimeCDT,TemperatureF,Dew PointF,Humidity,Sea Level PressureIn,VisibilityMPH,Wind Direction,Wind SpeedMPH,Gust SpeedMPH,PrecipitationIn,Events,Conditions,WindDirDegrees,DateUTC
12:08 AM,48.0,38.1,69,-9999,-9999.0,South,11.5,-,N/A,,Unknown,180,2012-10-11 05:08:00
12:28 AM,48.0,38.1,69,-9999,-9999.0,South,11.5,-,N/A,,Unknown,180,2012-10-11 05:28:00
12:48 AM,48.0,38.1,69,-9999,-9999.0,South,10.4,-,N/A,,Unknown,180,2012-10-11 05:48:00
1:08 AM,46.9,37.0,68,-9999,-9999.0,South,11.5,-,N/A,,Unknown,180,2012-10-11 06:08:00
1:28 AM,46.9,37.0,68,-9999,-9999.0,South,11.5,-,N/A,,Unknown,180,2012-10-11 06:28:00
1:48 AM,46.9,37.0,68,-9999,-9999.0,South,12.7,-,N/A,,Unknown,180,2012-10-11 06:48:00
2:08 AM,46.0,37.0,71,-9999,-9999.0,South,12.7,-,N/A,,Unknown,180,2012-10-11 07:08:00
2:28 AM,46.0,37.0,71,-9999,-9999.0,South,11.5,-,N/A,,Unknown,180,2012-10-11 07:28:00
2:48 AM,46.0,38.1,74,-9999,-9999.0,South,10.4,-,N/A,,Unknown,180,2012-10-11 07:48:00
3:08 AM,46.0,37.0,71,-9999,-9999.0,South,11.5,-,N/A,,Unknown,180,2012-10-11 08:08:00
3:28 AM,45.0,37.0,74,-9999,-9999.0,South,11.5,-,N/A,,Unknown,180,2012-10-11 08:28:00
3:48 AM,46.0,37.0,71,-9999,-9999.0,South,11.5,-,N/A,,Unknown,190,2012-10-11 08:48:00
4:08 AM,46.9,38.1,71,-9999,-9999.0,SSW,11.5,-,N/A,,Unknown,200,2012-10-11 09:08:00
4:28 AM,48.0,39.0,71,-9999,-9999.0,SSW,10.4,-,N/A,,Unknown,210,2012-10-11 09:28:00
4:48 AM,48.9,38.1,66,-9999,-9999.0,SSW,11.5,-,N/A,,Unknown,210,2012-10-11 09:48:00
5:08 AM,48.9,37.0,64,-9999,-9999.0,SSW,13.8,-,N/A,,Unknown,210,2012-10-11 10:08:00
5:28 AM,50.0,38.1,64,-9999,-9999.0,SSW,13.8,-,N/A,,Unknown,210,2012-10-11 10:28:00
5:48 AM,51.1,39.0,63,-9999,-9999.0,WSW,10.4,-,N/A,,Unknown,240,2012-10-11 10:48:00
6:08 AM,50.0,39.0,66,-9999,-9999.0,West,8.1,-,N/A,,Unknown,270,2012-10-11 11:08:00
6:28 AM,52.0,39.0,61,-9999,-9999.0,WSW,6.9,-,N/A,,Unknown,240,2012-10-11 11:28:00
6:48 AM,51.1,38.1,61,-9999,-9999.0,WSW,8.1,-,N/A,,Unknown,250,2012-10-11 11:48:00
7:08 AM,48.9,38.1,66,-9999,-9999.0,WNW,4.6,-,N/A,,Unknown,290,2012-10-11 12:08:00
7:28 AM,48.0,38.1,69,-9999,-9999.0,West,5.8,-,N/A,,Unknown,270,2012-10-11 12:28:00
7:48 AM,50.0,36.1,59,-9999,-9999.0,WSW,12.7,-,N/A,,Unknown,240,2012-10-11 12:48:00
8:08 AM,51.1,38.1,61,-9999,-9999.0,West,9.2,-,N/A,,Unknown,270,2012-10-11 13:08:00
8:28 AM,53.1,37.0,55,-9999,-9999.0,WSW,10.4,-,N/A,,Unknown,250,2012-10-11 13:28:00
8:48 AM,53.1,38.1,57,-9999,-9999.0,West,9.2,-,N/A,,Unknown,260,2012-10-11 13:48:00
9:08 AM,55.9,39.0,53,-9999,-9999.0,West,12.7,-,N/A,,Unknown,270,2012-10-11 14:08:00
9:28 AM,57.0,39.0,51,-9999,-9999.0,West,12.7,-,N/A,,Unknown,280,2012-10-11 14:28:00
9:48 AM,57.9,40.1,52,-9999,-9999.0,West,9.2,-,N/A,,Unknown,260,2012-10-11 14:48:00
10:08 AM,60.1,41.2,50,-9999,-9999.0,West,8.1,-,N/A,,Unknown,270,2012-10-11 15:08:00
10:28 AM,62.1,42.1,48,-9999,-9999.0,WSW,4.6,-,N/A,,Unknown,240,2012-10-11 15:28:00
10:48 AM,64.9,45.1,49,-9999,-9999.0,SW,1.2,-,N/A,,Unknown,220,2012-10-11 15:48:00
11:08 AM,71.1,46.0,41,-9999,-9999.0,WSW,2.3,-,N/A,,Unknown,250,2012-10-11 16:08:00
11:28 AM,75.0,42.1,31,-9999,-9999.0,WSW,10.4,-,N/A,,Unknown,250,2012-10-11 16:28:00
11:48 AM,78.1,42.1,28,-9999,-9999.0,WSW,10.4,-,N/A,,Unknown,240,2012-10-11 16:48:00
12:08 PM,80.6,42.8,26,-9999,-9999.0,WSW,10.4,-,N/A,,Unknown,240,2012-10-11 17:08:00
12:28 PM,82.0,42.1,24,-9999,-9999.0,WSW,9.2,-,N/A,,Unknown,240,2012-10-11 17:28:00
12:48 PM,82.9,42.1,24,-9999,-9999.0,SW,9.2,-,N/A,,Unknown,220,2012-10-11 17:48:00
1:08 PM,84.0,43.2,24,-9999,-9999.0,WSW,6.9,-,N/A,,Unknown,240,2012-10-11 18:08:00
1:28 PM,86.0,42.1,21,-9999,-9999.0,SW,5.8,-,N/A,,Unknown,220,2012-10-11 18:28:00
1:48 PM,87.1,42.1,21,-9999,-9999.0,SW,6.9,-,N/A,,Unknown,220,2012-10-11 18:48:00
2:08 PM,87.1,41.2,20,-9999,-9999.0,SSW,8.1,-,N/A,,Unknown,200,2012-10-11 19:08:00
2:28 PM,88.0,42.1,20,-9999,-9999.0,SW,8.1,-,N/A,,Unknown,220,2012-10-11 19:28:00
2:48 PM,88.0,42.1,20,-9999,-9999.0,South,6.9,-,N/A,,Unknown,190,2012-10-11 19:48:00
3:08 PM,87.8,37.4,17,-9999,-9999.0,SW,11.5,-,N/A,,Unknown,220,2012-10-11 20:08:00
3:28 PM,88.0,37.0,16,-9999,-9999.0,SSW,8.1,-,N/A,,Unknown,210,2012-10-11 20:28:00
3:48 PM,89.1,39.0,17,-9999,-9999.0,SW,11.5,-,N/A,,Unknown,220,2012-10-11 20:48:00
4:08 PM,89.1,40.1,18,-9999,-9999.0,SW,8.1,-,N/A,,Unknown,220,2012-10-11 21:08:00
4:28 PM,88.0,40.1,19,-9999,-9999.0,SW,8.1,-,N/A,,Unknown,220,2012-10-11 21:28:00
4:48 PM,87.1,42.1,21,-9999,-9999.0,SSW,6.9,-,N/A,,Unknown,200,2012-10-11 21:48:00
5:08 PM,88.0,41.2,19,-9999,-9999.0,SSW,9.2,-,N/A,,Unknown,210,2012-10-11 22:08:00
5:28 PM,86.0,42.1,21,-9999,-9999.0,SW,4.6,-,N/A,,Unknown,220,2012-10-11 22:28:00
5:48 PM,82.0,40.1,22,-9999,-9999.0,ENE,11.5,-,N/A,,Unknown,60,2012-10-11 22:48:00
6:08 PM,80.1,39.0,23,-9999,-9999.0,NNE,16.1,-,N/A,,Unknown,30,2012-10-11 23:08:00
6:28 PM,77.0,42.1,29,-9999,-9999.0,NE,18.4,-,N/A,,Unknown,40,2012-10-11 23:28:00
6:48 PM,73.9,42.1,32,-9999,-9999.0,NE,17.3,-,N/A,,Unknown,50,2012-10-11 23:48:00
7:08 PM,72.0,43.2,35,-9999,-9999.0,NE,15.0,-,N/A,,Unknown,40,2012-10-12 00:08:00
7:28 PM,69.8,42.8,38,-9999,-9999.0,NE,16.1,-,N/A,,Unknown,40,2012-10-12 00:28:00
7:48 PM,68.0,43.2,41,-9999,-9999.0,NE,18.4,-,N/A,,Unknown,50,2012-10-12 00:48:00
8:08 PM,66.0,43.2,43,-9999,-9999.0,NE,13.8,-,N/A,,Unknown,50,2012-10-12 01:08:00
8:28 PM,64.0,43.2,47,-9999,-9999.0,NE,12.7,-,N/A,,Unknown,40,2012-10-12 01:28:00
8:48 PM,63.0,43.2,48,-9999,-9999.0,NE,13.8,-,N/A,,Unknown,50,2012-10-12 01:48:00
9:08 PM,62.1,43.2,50,-9999,-9999.0,NE,12.7,-,N/A,,Unknown,50,2012-10-12 02:08:00
9:28 PM,61.0,42.1,50,-9999,-9999.0,NE,15.0,-,N/A,,Unknown,50,2012-10-12 02:28:00
9:48 PM,60.1,43.2,54,-9999,-9999.0,ENE,9.2,-,N/A,,Unknown,60,2012-10-12 02:48:00
10:08 PM,59.0,43.2,56,-9999,-9999.0,NE,11.5,-,N/A,,Unknown,50,2012-10-12 03:08:00
10:28 PM,59.0,43.2,56,-9999,-9999.0,NE,11.5,-,N/A,,Unknown,50,2012-10-12 03:28:00
10:48 PM,57.2,42.8,59,-9999,-9999.0,NE,10.4,-,N/A,,Unknown,40,2012-10-12 03:48:00
11:08 PM,57.9,42.1,56,-9999,-9999.0,NE,10.4,-,N/A,,Unknown,40,2012-10-12 04:08:00
11:28 PM,57.0,42.1,57,-9999,-9999.0,NE,11.5,-,N/A,,Unknown,40,2012-10-12 04:28:00
11:48 PM,55.9,41.2,58,-9999,-9999.0,NNE,13.8,-,N/A,,Unknown,30,2012-10-12 04:48:00